createdAt,value
2022-09-23T00:00:27.297Z,15.05
2022-09-23T00:02:54.513Z,13.95
2022-09-23T00:05:21.691Z,15.13
2022-09-23T00:07:49.215Z,15.00
2022-09-23T00:10:16.425Z,15.70
2022-09-23T00:12:43.649Z,19.30
2022-09-23T00:15:11.372Z,16.60
2022-09-23T00:17:38.611Z,16.55
2022-09-23T00:20:06.012Z,14.90
2022-09-23T00:22:33.898Z,15.60
2022-09-23T00:25:01.070Z,15.73
2022-09-23T00:27:29.563Z,15.20
2022-09-23T00:29:56.722Z,14.93
2022-09-23T00:32:23.902Z,15.15
2022-09-23T00:34:51.981Z,14.98
2022-09-23T00:37:19.677Z,14.43
2022-09-23T00:39:47.282Z,16.65
2022-09-23T00:42:16.292Z,16.48
2022-09-23T00:44:45.973Z,15.30
2022-09-23T00:47:24.509Z,13.32
2022-09-23T00:49:54.958Z,15.05
2022-09-23T00:52:23.928Z,14.23
2022-09-23T00:54:53.393Z,17.27
2022-09-23T00:57:20.574Z,16.73
2022-09-23T00:59:48.698Z,15.02
2022-09-23T01:02:16.214Z,16.58
2022-09-23T01:04:43.463Z,16.85
2022-09-23T01:07:10.656Z,14.80
2022-09-23T01:09:37.899Z,16.30
2022-09-23T01:12:05.223Z,16.75
2022-09-23T01:15:08.094Z,14.93
2022-09-23T01:20:11.644Z,14.00
2022-09-23T01:22:41.819Z,16.20
2022-09-23T01:25:08.974Z,15.57
2022-09-23T01:27:58.420Z,19.90
2022-09-23T01:30:44.498Z,17.98
2022-09-23T01:33:16.665Z,15.38
2022-09-23T01:35:53.061Z,17.10
2022-09-23T01:38:39.199Z,16.73
2022-09-23T01:41:22.603Z,16.77
2022-09-23T01:43:58.951Z,18.80
2022-09-23T01:46:49.293Z,15.95
2022-09-23T01:49:20.184Z,17.17
2022-09-23T01:51:53.068Z,15.77
2022-09-23T01:54:26.486Z,18.42
2022-09-23T01:57:01.639Z,14.13
2022-09-23T01:59:44.024Z,16.02
2022-09-23T02:02:16.683Z,15.90
2022-09-23T02:04:47.168Z,16.10
2022-09-23T02:07:32.766Z,16.65
2022-09-23T02:10:14.207Z,15.45
2022-09-23T02:12:45.546Z,19.58
2022-09-23T02:15:15.348Z,16.67
2022-09-23T02:17:52.202Z,16.20
2022-09-23T02:20:34.438Z,15.95
2022-09-23T02:23:16.443Z,16.60
2022-09-23T02:25:46.693Z,16.90
2022-09-23T02:28:16.996Z,18.55
2022-09-23T02:30:50.304Z,16.58
2022-09-23T02:33:40.840Z,15.90
2022-09-23T02:36:12.070Z,17.13
2022-09-23T02:38:58.623Z,16.70
2022-09-23T02:41:29.298Z,17.23
2022-09-23T02:43:57.739Z,16.45
2022-09-23T02:46:25.029Z,16.00
2022-09-23T02:49:04.155Z,16.73
2022-09-23T02:51:37.809Z,17.25
2022-09-23T02:54:07.260Z,15.60
2022-09-23T02:56:34.927Z,16.40
2022-09-23T02:59:02.755Z,15.82
2022-09-23T03:01:33.124Z,14.93
2022-09-23T03:04:16.529Z,16.20
2022-09-23T03:06:43.759Z,17.40
2022-09-23T03:09:19.555Z,15.73
2022-09-23T03:11:53.814Z,25.35
2022-09-23T03:14:22.199Z,15.77
2022-09-23T03:16:59.136Z,16.17
2022-09-23T03:19:35.373Z,16.17
2022-09-23T03:22:11.468Z,15.82
2022-09-23T03:24:40.040Z,16.70
2022-09-23T03:27:13.716Z,20.77
2022-09-23T03:29:47.132Z,15.52
2022-09-23T03:32:17.003Z,18.17
2022-09-23T03:34:45.023Z,17.23
2022-09-23T03:37:18.879Z,15.50
2022-09-23T03:39:52.655Z,17.42
2022-09-23T03:42:21.715Z,17.35
2022-09-23T03:44:50.406Z,16.48
2022-09-23T03:47:18.552Z,20.30
2022-09-23T03:49:50.816Z,17.45
2022-09-23T03:52:19.107Z,17.10
2022-09-23T03:54:46.606Z,16.33
2022-09-23T03:57:13.860Z,16.83
2022-09-23T03:59:41.331Z,18.20
2022-09-23T04:02:09.123Z,16.70
2022-09-23T04:04:37.403Z,17.88
2022-09-23T04:07:04.602Z,17.60
2022-09-23T04:09:31.861Z,15.27
2022-09-23T04:11:59.083Z,16.33
2022-09-23T04:14:26.286Z,17.27
2022-09-23T04:16:53.495Z,16.30
2022-09-23T04:19:20.708Z,17.60
2022-09-23T04:21:48.074Z,15.98
2022-09-23T04:24:16.240Z,16.10
2022-09-23T04:26:44.144Z,16.38
2022-09-23T04:29:11.954Z,17.08
2022-09-23T04:31:39.449Z,17.05
2022-09-23T04:34:06.952Z,17.98
2022-09-23T04:36:34.311Z,16.15
2022-09-23T04:39:01.581Z,16.30
2022-09-23T04:41:29.592Z,17.73
2022-09-23T04:43:57.588Z,16.42
2022-09-23T04:46:25.158Z,17.55
2022-09-23T04:48:52.385Z,16.65
2022-09-23T04:51:20.780Z,17.33
2022-09-23T04:53:48.552Z,17.25
2022-09-23T04:56:17.045Z,17.92
2022-09-23T04:58:45.623Z,17.40
2022-09-23T05:01:17.269Z,17.00
2022-09-23T05:03:45.120Z,17.23
2022-09-23T05:06:13.893Z,19.50
2022-09-23T05:08:48.580Z,17.77
2022-09-23T05:11:15.873Z,18.80
2022-09-23T05:13:43.153Z,17.35
2022-09-23T05:16:12.542Z,17.67
2022-09-23T05:18:42.671Z,19.05
2022-09-23T05:21:17.647Z,17.92
2022-09-23T05:23:48.488Z,16.85
2022-09-23T05:26:15.756Z,17.50
2022-09-23T05:28:42.968Z,16.52
2022-09-23T05:31:20.281Z,18.25
2022-09-23T05:33:52.088Z,20.58
2022-09-23T05:36:20.677Z,19.02
2022-09-23T05:38:49.266Z,18.13
2022-09-23T05:41:16.923Z,17.58
2022-09-23T05:43:44.144Z,17.13
2022-09-23T05:46:12.883Z,17.75
2022-09-23T05:48:40.736Z,18.08
2022-09-23T05:51:12.939Z,19.05
2022-09-23T05:53:41.668Z,18.80
2022-09-23T05:56:08.820Z,19.02
2022-09-23T05:58:35.988Z,18.33
2022-09-23T06:01:09.288Z,19.77
2022-09-23T06:03:36.599Z,20.05
2022-09-23T06:06:03.775Z,19.13
2022-09-23T06:08:31.932Z,20.25
2022-09-23T06:10:59.374Z,19.13
2022-09-23T06:13:27.111Z,21.15
2022-09-23T06:15:58.371Z,18.55
2022-09-23T06:18:25.659Z,18.42
2022-09-23T06:20:52.978Z,20.27
2022-09-23T06:23:23.583Z,19.45
2022-09-23T06:28:19.993Z,21.52
2022-09-23T06:30:49.428Z,23.13
2022-09-23T06:33:20.232Z,19.95
2022-09-23T06:35:59.894Z,18.65
2022-09-23T06:38:28.092Z,21.05
2022-09-23T06:40:56.142Z,17.55
2022-09-23T06:43:23.766Z,18.02
2022-09-23T06:45:54.543Z,19.00
2022-09-23T06:48:21.959Z,23.23
2022-09-23T06:50:49.411Z,18.38
2022-09-23T06:53:16.912Z,17.77
2022-09-23T06:55:44.643Z,16.33
2022-09-23T06:58:11.925Z,19.00
2022-09-23T07:00:39.248Z,20.48
2022-09-23T07:03:10.102Z,18.48
2022-09-23T07:05:38.587Z,18.27
2022-09-23T07:08:09.683Z,20.70
2022-09-23T07:10:37.163Z,19.40
2022-09-23T07:13:05.104Z,17.10
2022-09-23T07:15:33.851Z,16.05
2022-09-23T07:18:01.082Z,16.33
2022-09-23T07:20:28.249Z,16.38
2022-09-23T07:22:55.699Z,20.00
2022-09-23T07:25:23.187Z,16.83
2022-09-23T07:27:50.352Z,17.42
2022-09-23T07:30:24.620Z,18.40
2022-09-23T07:32:53.169Z,18.48
2022-09-23T07:35:20.456Z,17.10
2022-09-23T07:37:47.835Z,17.00
2022-09-23T07:40:15.043Z,17.80
2022-09-23T07:42:42.387Z,17.05
2022-09-23T07:45:09.870Z,16.23
2022-09-23T07:47:39.315Z,17.27
2022-09-23T07:50:07.612Z,18.77
2022-09-23T07:52:38.400Z,16.67
2022-09-23T07:55:06.667Z,16.83
2022-09-23T07:57:34.501Z,15.63
2022-09-23T08:00:02.429Z,15.13
2022-09-23T08:02:29.667Z,19.13
2022-09-23T08:04:56.860Z,15.57
2022-09-23T08:07:24.063Z,16.85
2022-09-23T08:09:51.247Z,16.13
2022-09-23T08:12:18.981Z,12.60
2022-09-23T08:14:46.147Z,15.15
2022-09-23T08:17:14.143Z,17.83
2022-09-23T08:19:41.292Z,16.95
2022-09-23T08:22:08.522Z,17.23
2022-09-23T08:24:35.684Z,14.02
2022-09-23T08:27:02.870Z,16.75
2022-09-23T08:29:30.050Z,18.83
2022-09-23T08:31:57.280Z,14.60
2022-09-23T08:34:24.669Z,14.05
2022-09-23T08:36:52.520Z,17.55
2022-09-23T08:39:20.350Z,17.52
2022-09-23T08:41:59.002Z,13.75
2022-09-23T08:44:45.320Z,12.98
2022-09-23T08:47:38.963Z,17.88
2022-09-23T08:50:06.646Z,18.77
2022-09-23T08:52:36.489Z,17.08
2022-09-23T08:55:04.226Z,14.85
2022-09-23T08:58:23.477Z,13.52
2022-09-23T09:00:42.837Z,14.02
2022-09-23T09:03:20.171Z,16.70
2022-09-23T09:05:54.158Z,14.73
2022-09-23T09:08:27.156Z,16.60
2022-09-23T09:10:55.659Z,12.38
2022-09-23T09:13:31.555Z,13.80
2022-09-23T09:16:11.431Z,14.25
2022-09-23T09:18:44.125Z,13.50
2022-09-23T09:21:14.401Z,19.35
2022-09-23T09:23:46.639Z,21.73
2022-09-23T09:26:27.278Z,21.33
2022-09-23T09:29:30.849Z,19.02
2022-09-23T09:31:56.146Z,19.48
2022-09-23T09:34:26.350Z,15.13
2022-09-23T09:37:07.437Z,14.02
2022-09-23T09:39:35.362Z,17.90
2022-09-23T09:42:03.359Z,24.17
2022-09-23T09:44:37.100Z,23.10
2022-09-23T09:47:07.592Z,26.00
2022-09-23T09:49:53.660Z,29.27
2022-09-23T09:52:26.298Z,18.70
2022-09-23T09:54:56.166Z,13.85
2022-09-23T09:57:33.711Z,13.30
2022-09-23T10:00:18.917Z,11.93
2022-09-23T10:02:47.444Z,12.93
2022-09-23T10:05:26.897Z,12.55
2022-09-23T10:07:54.275Z,13.52
2022-09-23T10:10:33.146Z,13.07
2022-09-23T10:13:14.361Z,12.88
2022-09-23T10:15:45.646Z,14.02
2022-09-23T10:18:20.236Z,12.93
2022-09-23T10:20:48.705Z,14.85
2022-09-23T10:23:21.060Z,13.10
2022-09-23T10:26:18.465Z,12.75
2022-09-23T10:28:50.533Z,13.38
2022-09-23T10:31:25.330Z,11.55
2022-09-23T10:33:57.432Z,18.83
2022-09-23T10:36:24.876Z,11.20
2022-09-23T10:38:55.632Z,13.32
2022-09-23T10:42:10.567Z,13.68
2022-09-23T10:45:05.383Z,15.27
2022-09-23T10:47:44.751Z,14.02
2022-09-23T10:50:17.973Z,13.10
2022-09-23T10:52:49.812Z,12.65
2022-09-23T10:55:34.213Z,13.23
2022-09-23T10:58:20.259Z,15.35
2022-09-23T11:00:47.444Z,14.82
2022-09-23T11:03:33.652Z,13.20
2022-09-23T11:06:07.280Z,13.43
2022-09-23T11:08:40.753Z,13.43
2022-09-23T11:11:11.708Z,15.35
2022-09-23T11:13:40.227Z,13.52
2022-09-23T11:16:20.051Z,12.60
2022-09-23T11:19:00.215Z,13.73
2022-09-23T11:21:46.383Z,13.77
2022-09-23T11:24:28.798Z,12.27
2022-09-23T11:29:23.107Z,13.23
2022-09-23T11:31:59.526Z,11.50
2022-09-23T11:34:27.002Z,10.70
2022-09-23T11:36:58.554Z,14.35
2022-09-23T11:39:46.000Z,14.35
2022-09-23T11:42:24.783Z,14.32
2022-09-23T11:44:55.928Z,14.73
2022-09-23T11:47:27.016Z,10.95
2022-09-23T11:50:03.096Z,15.35
2022-09-23T11:52:33.156Z,12.52
2022-09-23T11:55:20.746Z,13.40
2022-09-23T11:57:51.968Z,25.70
2022-09-23T12:00:23.237Z,13.55
2022-09-23T12:03:05.568Z,12.07
2022-09-23T12:05:39.416Z,26.33
2022-09-23T12:08:20.875Z,15.25
2022-09-23T12:11:06.592Z,14.23
2022-09-23T12:13:53.257Z,11.88
2022-09-23T12:16:29.631Z,12.95
2022-09-23T12:19:05.930Z,12.00
2022-09-23T12:21:49.645Z,14.95
2022-09-23T12:24:27.530Z,15.75
2022-09-23T12:26:56.215Z,14.40
2022-09-23T12:29:25.129Z,13.50
2022-09-23T12:31:52.601Z,16.42
2022-09-23T12:34:22.805Z,14.00
2022-09-23T12:36:50.132Z,12.95
2022-09-23T12:39:18.441Z,10.32
2022-09-23T12:41:48.655Z,15.65
2022-09-23T12:44:29.263Z,11.80
2022-09-23T12:47:15.286Z,14.40
2022-09-23T12:49:43.784Z,13.48
2022-09-23T12:52:17.068Z,15.52
2022-09-23T12:54:45.268Z,13.32
2022-09-23T12:57:35.512Z,11.77
2022-09-23T13:00:13.402Z,12.93
2022-09-23T13:03:11.283Z,18.00
2022-09-23T13:06:16.087Z,15.30
2022-09-23T13:08:43.472Z,12.50
2022-09-23T13:11:25.813Z,12.63
2022-09-23T13:13:55.225Z,15.98
2022-09-23T13:16:31.623Z,13.93
2022-09-23T13:19:02.997Z,12.15
2022-09-23T13:22:05.550Z,11.25
2022-09-23T13:24:43.303Z,11.93
2022-09-23T13:27:22.772Z,14.07
2022-09-23T13:29:59.175Z,13.15
2022-09-23T13:32:29.592Z,12.70
2022-09-23T13:35:01.675Z,14.73
2022-09-23T13:37:48.793Z,10.85
2022-09-23T13:40:20.639Z,12.75
2022-09-23T13:43:08.125Z,10.00
2022-09-23T13:45:43.198Z,13.75
2022-09-23T13:48:13.612Z,9.70
2022-09-23T13:50:43.865Z,13.60
2022-09-23T13:53:18.799Z,13.75
2022-09-23T13:55:49.033Z,14.50
2022-09-23T13:58:20.500Z,13.68
2022-09-23T14:00:48.382Z,12.43
2022-09-23T14:03:36.275Z,15.45
2022-09-23T14:06:12.198Z,11.50
2022-09-23T14:08:40.518Z,10.23
2022-09-23T14:11:07.892Z,13.93
2022-09-23T14:13:41.130Z,11.32
2022-09-23T14:16:11.113Z,10.95
2022-09-23T14:18:40.257Z,14.50
2022-09-23T14:21:26.832Z,9.10
2022-09-23T14:23:54.123Z,10.85
2022-09-23T14:26:21.845Z,12.80
2022-09-23T14:28:49.162Z,10.63
2022-09-23T14:31:16.458Z,10.50
2022-09-23T14:33:44.003Z,13.45
2022-09-23T14:36:34.338Z,11.35
2022-09-23T14:39:11.957Z,11.80
2022-09-23T14:41:40.587Z,11.85
2022-09-23T14:44:08.600Z,15.38
2022-09-23T14:46:37.178Z,13.18
2022-09-23T14:49:05.589Z,15.52
2022-09-23T14:51:39.045Z,10.65
2022-09-23T14:54:32.367Z,14.02
2022-09-23T14:56:59.987Z,12.82
2022-09-23T14:59:29.149Z,16.45
2022-09-23T15:01:57.264Z,12.30
2022-09-23T15:04:24.425Z,12.95
2022-09-23T15:06:51.684Z,11.90
2022-09-23T15:09:30.440Z,13.68
2022-09-23T15:11:59.470Z,13.45
2022-09-23T15:14:39.749Z,10.77
2022-09-23T15:17:30.112Z,12.82
2022-09-23T15:19:59.682Z,11.20
2022-09-23T15:22:27.589Z,14.77
2022-09-23T15:24:56.380Z,11.77
2022-09-23T15:27:23.559Z,11.73
2022-09-23T15:29:51.010Z,10.93
2022-09-23T15:32:18.288Z,13.23
2022-09-23T15:34:45.559Z,12.32
2022-09-23T15:37:12.900Z,13.70
2022-09-23T15:39:40.123Z,11.68
2022-09-23T15:42:10.083Z,15.27
2022-09-23T15:44:38.053Z,10.70
2022-09-23T15:47:05.377Z,11.40
2022-09-23T15:49:36.146Z,10.02
2022-09-23T15:52:04.337Z,12.63
2022-09-23T15:54:32.452Z,11.27
2022-09-23T15:57:01.110Z,13.38
2022-09-23T15:59:30.888Z,12.50
2022-09-23T16:01:59.762Z,8.52
2022-09-23T16:04:28.304Z,7.97
2022-09-23T16:06:55.544Z,11.77
2022-09-23T16:09:22.711Z,9.77
2022-09-23T16:11:50.271Z,11.13
2022-09-23T16:14:18.276Z,11.82
2022-09-23T16:16:47.736Z,10.07
2022-09-23T16:19:16.219Z,12.75
2022-09-23T16:21:44.643Z,10.85
2022-09-23T16:24:19.119Z,13.43
2022-09-23T16:26:47.443Z,11.38
2022-09-23T16:29:14.972Z,11.50
2022-09-23T16:31:42.437Z,11.55
2022-09-23T16:34:09.735Z,9.48
2022-09-23T16:36:40.560Z,12.15
2022-09-23T16:39:10.156Z,9.63
2022-09-23T16:41:37.600Z,10.07
2022-09-23T16:44:07.389Z,9.68
2022-09-23T16:46:35.176Z,10.35
2022-09-23T16:49:02.735Z,12.85
2022-09-23T16:51:31.673Z,10.68
2022-09-23T16:54:00.007Z,9.60
2022-09-23T16:56:28.907Z,9.63
2022-09-23T16:58:56.831Z,11.35
2022-09-23T17:01:47.565Z,9.57
2022-09-23T17:04:15.714Z,9.10
2022-09-23T17:06:44.265Z,9.52
2022-09-23T17:09:11.740Z,11.68
2022-09-23T17:11:38.964Z,11.93
2022-09-23T17:14:07.524Z,10.05
2022-09-23T17:16:35.733Z,12.07
2022-09-23T17:19:07.420Z,11.20
2022-09-23T17:21:34.801Z,9.93
2022-09-23T17:24:02.089Z,11.07
2022-09-23T17:26:29.697Z,9.73
2022-09-23T17:28:58.826Z,13.45
2022-09-23T17:31:26.237Z,11.27
2022-09-23T17:33:53.861Z,10.88
2022-09-23T17:36:21.468Z,10.18
2022-09-23T17:38:49.196Z,12.05
2022-09-23T17:41:18.044Z,15.23
2022-09-23T17:43:46.744Z,11.95
2022-09-23T17:46:18.275Z,11.25
2022-09-23T17:48:47.022Z,11.18
2022-09-23T17:51:16.090Z,16.27
2022-09-23T17:53:45.501Z,11.68
2022-09-23T17:56:15.046Z,13.13
2022-09-23T17:58:42.868Z,17.45
2022-09-23T18:01:11.263Z,10.45
2022-09-23T18:03:38.808Z,11.63
2022-09-23T18:06:10.589Z,10.02
2022-09-23T18:08:38.054Z,12.40
2022-09-23T18:11:40.707Z,11.07
2022-09-23T18:14:11.509Z,12.85
2022-09-23T18:16:39.808Z,12.07
2022-09-23T18:19:08.221Z,13.38
2022-09-23T18:21:36.580Z,11.38
2022-09-23T18:24:30.719Z,14.68
2022-09-23T18:26:52.769Z,16.05
2022-09-23T18:29:20.024Z,18.10
2022-09-23T18:31:48.058Z,13.75
2022-09-23T18:34:19.022Z,16.30
2022-09-23T18:36:46.547Z,14.93
2022-09-23T18:39:13.748Z,13.48
2022-09-23T18:41:41.270Z,15.43
2022-09-23T18:44:08.756Z,14.57
2022-09-23T18:46:36.455Z,13.23
2022-09-23T18:49:22.604Z,13.00
2022-09-23T18:51:53.804Z,13.82
2022-09-23T18:54:21.504Z,15.13
2022-09-23T18:56:49.560Z,12.85
2022-09-23T18:59:19.494Z,14.93
2022-09-23T19:01:48.027Z,14.32
2022-09-23T19:04:16.699Z,13.18
2022-09-23T19:06:43.934Z,14.93
2022-09-23T19:09:12.083Z,14.70
2022-09-23T19:11:39.337Z,12.80
2022-09-23T19:14:09.862Z,15.55
2022-09-23T19:16:38.450Z,16.52
2022-09-23T19:19:06.310Z,17.08
2022-09-23T19:21:33.831Z,16.10
2022-09-23T19:24:03.379Z,15.15
2022-09-23T19:26:36.680Z,16.05
2022-09-23T19:29:04.830Z,16.17
2022-09-23T19:31:38.599Z,14.68
2022-09-23T19:34:10.049Z,15.77
2022-09-23T19:36:38.430Z,15.52
2022-09-23T19:39:06.699Z,15.63
2022-09-23T19:41:35.385Z,16.25
2022-09-23T19:44:03.420Z,18.55
2022-09-23T19:46:32.378Z,15.02
2022-09-23T19:49:00.406Z,17.17
2022-09-23T19:51:28.284Z,17.85
2022-09-23T19:53:55.600Z,17.65
2022-09-23T19:56:22.793Z,17.55
2022-09-23T19:58:52.419Z,16.45
2022-09-23T20:01:19.754Z,18.02
2022-09-23T20:03:47.664Z,18.10
2022-09-23T20:06:16.063Z,19.38
2022-09-23T20:08:43.559Z,18.02
2022-09-23T20:11:15.272Z,22.27
2022-09-23T20:13:43.984Z,20.75
2022-09-23T20:16:12.321Z,24.77
2022-09-23T20:18:39.731Z,25.08
2022-09-23T20:21:07.912Z,24.75
2022-09-23T20:23:35.404Z,19.98
2022-09-23T20:26:22.016Z,23.05
2022-09-23T20:28:49.403Z,24.25
2022-09-23T20:31:17.252Z,24.40
2022-09-23T20:33:45.979Z,25.35
2022-09-23T20:36:13.447Z,23.67
2022-09-23T20:38:40.885Z,24.65
2022-09-23T20:41:09.350Z,28.48
2022-09-23T20:43:36.730Z,27.50
2022-09-23T20:46:05.516Z,27.90
2022-09-23T20:48:33.822Z,28.23
2022-09-23T20:51:04.941Z,23.90
2022-09-23T20:53:32.641Z,30.35
2022-09-23T20:56:02.792Z,27.75
2022-09-23T20:58:30.988Z,30.08
2022-09-23T21:01:05.989Z,31.23
2022-09-23T21:03:33.989Z,29.38
2022-09-23T21:06:04.722Z,23.75
2022-09-23T21:08:33.661Z,31.73
2022-09-23T21:11:04.571Z,30.55
2022-09-23T21:13:33.533Z,28.30
2022-09-23T21:16:04.276Z,31.17
2022-09-23T21:18:31.960Z,29.42
2022-09-23T21:20:59.908Z,29.58
2022-09-23T21:23:27.244Z,28.65
2022-09-23T21:26:14.762Z,32.08
2022-09-23T21:28:43.161Z,31.38
2022-09-23T21:31:12.021Z,31.95
2022-09-23T21:33:39.324Z,31.75
2022-09-23T21:36:07.417Z,30.35
2022-09-23T21:38:35.736Z,39.40
2022-09-23T21:41:04.301Z,33.47
2022-09-23T21:43:33.651Z,35.78
2022-09-23T21:46:02.629Z,36.13
2022-09-23T21:48:32.341Z,33.30
2022-09-23T21:51:19.732Z,32.83
2022-09-23T21:53:47.054Z,34.22
2022-09-23T21:56:19.627Z,42.53
2022-09-23T21:58:48.106Z,35.00
2022-09-23T22:01:15.807Z,32.35
2022-09-23T22:03:43.912Z,41.53
2022-09-23T22:06:12.310Z,38.65
2022-09-23T22:08:40.984Z,38.85
2022-09-23T22:11:32.353Z,39.50
2022-09-23T22:14:00.514Z,38.45
2022-09-23T22:16:29.113Z,36.97
2022-09-23T22:18:57.144Z,38.60
2022-09-23T22:21:24.970Z,37.83
2022-09-23T22:23:52.709Z,35.13
2022-09-23T22:26:19.990Z,41.22
2022-09-23T22:29:05.843Z,35.67
2022-09-23T22:31:51.445Z,34.70
2022-09-23T22:34:44.952Z,44.70
2022-09-23T22:37:07.759Z,40.30
2022-09-23T22:39:34.940Z,40.33
2022-09-23T22:42:02.192Z,43.53
2022-09-23T22:44:29.438Z,44.30
2022-09-23T22:46:58.214Z,41.08
2022-09-23T22:49:25.533Z,43.55
2022-09-23T22:51:53.649Z,50.47
2022-09-23T22:54:22.175Z,43.58
2022-09-23T22:56:50.135Z,47.35
2022-09-23T22:59:17.481Z,54.90
2022-09-23T23:01:45.243Z,51.45
2022-09-23T23:04:12.914Z,53.35
2022-09-23T23:06:41.283Z,58.70
2022-09-23T23:09:09.605Z,48.83
2022-09-23T23:11:38.034Z,45.05
2022-09-23T23:14:05.225Z,46.55
2022-09-23T23:16:36.109Z,55.53
2022-09-23T23:19:06.943Z,49.10
2022-09-23T23:21:35.296Z,48.45
2022-09-23T23:24:04.475Z,55.15
2022-09-23T23:26:32.863Z,52.22
2022-09-23T23:29:01.398Z,58.63
2022-09-23T23:31:29.355Z,55.78
2022-09-23T23:33:56.571Z,47.60
2022-09-23T23:36:23.986Z,45.03
2022-09-23T23:38:51.734Z,58.25
2022-09-23T23:41:21.476Z,51.15
2022-09-23T23:43:50.004Z,65.35
2022-09-23T23:46:18.142Z,62.42
2022-09-23T23:48:48.326Z,59.15
2022-09-23T23:51:16.353Z,72.13
2022-09-23T23:53:43.850Z,62.70
2022-09-23T23:56:16.050Z,72.47
2022-09-23T23:58:43.668Z,74.85
